createdAt,value
2022-12-31T00:00:15.238Z,3.03
2022-12-31T00:02:42.246Z,3.75
2022-12-31T00:05:09.736Z,3.83
2022-12-31T00:10:03.663Z,4.00
2022-12-31T00:12:30.557Z,4.00
2022-12-31T00:14:57.437Z,3.85
2022-12-31T00:17:24.380Z,3.90
2022-12-31T00:19:51.249Z,3.75
2022-12-31T00:22:18.087Z,4.13
2022-12-31T00:24:44.997Z,3.78
2022-12-31T00:27:11.988Z,4.65
2022-12-31T00:29:38.827Z,3.70
2022-12-31T00:32:05.993Z,4.30
2022-12-31T00:34:33.783Z,3.35
2022-12-31T00:37:00.708Z,3.03
2022-12-31T00:39:27.628Z,3.50
2022-12-31T00:41:54.554Z,2.45
2022-12-31T00:44:21.401Z,2.50
2022-12-31T00:46:48.464Z,2.42
2022-12-31T00:49:15.849Z,1.95
2022-12-31T00:51:42.924Z,2.00
2022-12-31T00:54:10.225Z,2.10
2022-12-31T00:56:37.166Z,2.20
2022-12-31T00:59:04.349Z,1.63
2022-12-31T01:01:34.595Z,1.60
2022-12-31T01:04:10.571Z,2.15
2022-12-31T01:06:37.874Z,1.67
2022-12-31T01:09:05.868Z,1.75
2022-12-31T01:11:33.145Z,1.70
2022-12-31T01:14:01.431Z,1.85
2022-12-31T01:16:42.246Z,2.80
2022-12-31T01:19:12.755Z,2.33
2022-12-31T01:21:41.009Z,2.55
2022-12-31T01:24:09.771Z,2.35
2022-12-31T01:26:37.199Z,2.60
2022-12-31T01:29:06.080Z,2.58
2022-12-31T01:31:34.511Z,2.90
2022-12-31T01:34:01.792Z,3.47
2022-12-31T01:36:30.520Z,3.75
2022-12-31T01:38:59.497Z,3.35
2022-12-31T01:41:37.072Z,3.80
2022-12-31T01:44:23.923Z,3.95
2022-12-31T01:46:58.263Z,3.90
2022-12-31T01:49:31.063Z,4.10
2022-12-31T01:52:14.964Z,3.53
2022-12-31T01:54:49.184Z,3.80
2022-12-31T01:57:16.991Z,4.47
2022-12-31T01:59:45.266Z,3.78
2022-12-31T02:02:14.465Z,3.75
2022-12-31T02:04:41.911Z,3.75
2022-12-31T02:07:11.281Z,3.42
2022-12-31T02:09:40.048Z,3.70
2022-12-31T02:12:08.301Z,4.00
2022-12-31T02:14:42.439Z,3.83
2022-12-31T02:17:31.130Z,3.15
2022-12-31T02:20:00.797Z,2.63
2022-12-31T02:23:09.482Z,3.78
2022-12-31T02:25:51.601Z,3.95
2022-12-31T02:28:43.244Z,3.47
2022-12-31T02:31:34.825Z,3.70
2022-12-31T02:34:13.723Z,3.80
2022-12-31T02:36:44.437Z,3.75
2022-12-31T02:39:13.806Z,3.95
2022-12-31T02:41:52.869Z,3.67
2022-12-31T02:44:33.007Z,2.95
2022-12-31T02:47:09.216Z,1.85
2022-12-31T02:49:54.248Z,1.90
2022-12-31T02:53:02.412Z,1.80
2022-12-31T02:55:32.152Z,1.80
2022-12-31T02:57:59.010Z,1.48
2022-12-31T03:00:44.833Z,2.03
2022-12-31T03:03:12.356Z,1.30
2022-12-31T03:05:43.353Z,1.50
2022-12-31T03:08:10.295Z,1.33
2022-12-31T03:10:37.383Z,1.23
2022-12-31T03:13:04.434Z,1.10
2022-12-31T03:15:33.589Z,1.20
2022-12-31T03:18:00.456Z,0.70
2022-12-31T03:20:56.394Z,1.20
2022-12-31T03:23:30.601Z,0.82
2022-12-31T03:25:59.156Z,1.23
2022-12-31T03:28:28.687Z,1.58
2022-12-31T03:30:58.465Z,1.40
2022-12-31T03:33:26.314Z,1.20
2022-12-31T03:35:54.169Z,1.33
2022-12-31T03:38:21.157Z,1.13
2022-12-31T03:40:50.774Z,1.38
2022-12-31T03:43:19.400Z,1.60
2022-12-31T03:45:53.910Z,1.23
2022-12-31T03:48:22.362Z,1.15
2022-12-31T03:50:49.590Z,1.70
2022-12-31T03:53:16.851Z,1.70
2022-12-31T03:55:43.885Z,1.58
2022-12-31T03:58:11.114Z,1.60
2022-12-31T04:00:38.009Z,2.00
2022-12-31T04:03:06.475Z,2.78
2022-12-31T04:05:33.832Z,2.30
2022-12-31T04:08:00.932Z,2.35
2022-12-31T04:10:27.729Z,2.25
2022-12-31T04:12:54.658Z,2.05
2022-12-31T04:15:22.177Z,2.00
2022-12-31T04:17:49.260Z,2.00
2022-12-31T04:20:16.855Z,2.47
2022-12-31T04:22:44.172Z,2.60
2022-12-31T04:25:11.750Z,2.40
2022-12-31T04:27:43.729Z,1.90
2022-12-31T04:30:12.888Z,1.80
2022-12-31T04:32:40.108Z,2.55
2022-12-31T04:35:07.670Z,2.40
2022-12-31T04:37:34.620Z,2.88
2022-12-31T04:40:05.934Z,2.70
2022-12-31T04:42:33.724Z,3.58
2022-12-31T04:45:00.689Z,3.80
2022-12-31T04:47:27.795Z,3.90
2022-12-31T04:49:54.713Z,4.55
2022-12-31T04:52:21.850Z,5.00
2022-12-31T04:54:48.690Z,5.05
2022-12-31T04:57:15.584Z,5.25
2022-12-31T04:59:42.421Z,5.75
2022-12-31T05:02:09.792Z,5.38
2022-12-31T05:04:36.934Z,5.10
2022-12-31T05:07:03.838Z,4.63
2022-12-31T05:09:31.134Z,3.95
2022-12-31T05:11:58.309Z,4.53
2022-12-31T05:14:25.439Z,4.15
2022-12-31T05:16:54.015Z,4.50
2022-12-31T05:19:20.988Z,4.57
2022-12-31T05:22:07.844Z,4.40
2022-12-31T05:24:34.771Z,4.10
2022-12-31T05:27:01.786Z,4.35
2022-12-31T05:29:28.630Z,4.38
2022-12-31T05:31:55.553Z,4.40
2022-12-31T05:34:22.485Z,4.40
2022-12-31T05:36:49.287Z,3.88
2022-12-31T05:39:16.255Z,4.60
2022-12-31T05:41:43.197Z,3.60
2022-12-31T05:44:11.052Z,4.05
2022-12-31T05:46:38.017Z,3.42
2022-12-31T05:49:05.028Z,3.53
2022-12-31T05:51:32.150Z,3.53
2022-12-31T05:53:59.123Z,3.85
2022-12-31T05:56:26.029Z,3.85
2022-12-31T05:58:52.933Z,3.65
2022-12-31T06:01:19.867Z,3.78
2022-12-31T06:03:47.189Z,3.10
2022-12-31T06:06:14.133Z,3.47
2022-12-31T06:08:41.089Z,3.20
2022-12-31T06:11:08.158Z,3.40
2022-12-31T06:13:35.226Z,3.30
2022-12-31T06:16:09.465Z,3.50
2022-12-31T06:18:36.915Z,3.15
2022-12-31T06:21:04.257Z,3.33
2022-12-31T06:23:31.592Z,3.40
2022-12-31T06:26:05.278Z,3.25
2022-12-31T06:28:32.376Z,3.78
2022-12-31T06:31:01.231Z,3.78
2022-12-31T06:33:28.697Z,4.38
2022-12-31T06:36:02.053Z,4.07
2022-12-31T06:38:31.163Z,4.28
2022-12-31T06:40:58.118Z,4.85
2022-12-31T06:43:25.081Z,5.80
2022-12-31T06:45:51.953Z,5.55
2022-12-31T06:48:18.822Z,6.32
2022-12-31T06:50:45.743Z,6.50
2022-12-31T06:53:12.656Z,6.78
2022-12-31T06:55:39.994Z,6.82
2022-12-31T06:58:11.862Z,6.45
2022-12-31T07:00:46.470Z,6.35
2022-12-31T07:03:40.184Z,6.05
2022-12-31T07:06:16.929Z,6.20
2022-12-31T07:09:03.983Z,6.00
2022-12-31T07:11:40.789Z,4.28
2022-12-31T07:14:10.760Z,3.75
2022-12-31T07:17:13.172Z,2.80
2022-12-31T07:20:04.962Z,2.60
2022-12-31T07:22:32.049Z,1.80
2022-12-31T07:24:59.333Z,2.28
2022-12-31T07:27:32.046Z,2.05
2022-12-31T07:30:17.029Z,1.90
2022-12-31T07:33:11.950Z,1.30
2022-12-31T07:36:06.770Z,0.82
2022-12-31T07:38:37.480Z,0.77
2022-12-31T07:41:38.758Z,0.80
2022-12-31T07:44:43.323Z,0.63
2022-12-31T07:47:21.038Z,1.10
2022-12-31T07:49:48.411Z,1.00
2022-12-31T07:52:15.673Z,0.55
2022-12-31T07:54:42.616Z,1.40
2022-12-31T07:57:14.368Z,1.60
2022-12-31T08:00:11.883Z,2.05
2022-12-31T08:02:47.531Z,2.67
2022-12-31T08:05:52.164Z,2.63
2022-12-31T08:08:24.894Z,2.47
2022-12-31T08:11:00.652Z,2.85
2022-12-31T08:13:27.836Z,3.05
2022-12-31T08:15:55.060Z,4.13
2022-12-31T08:18:22.219Z,2.55
2022-12-31T08:20:58.467Z,2.25
2022-12-31T08:23:33.078Z,2.55
2022-12-31T08:26:18.741Z,2.13
2022-12-31T08:29:10.419Z,1.63
2022-12-31T08:31:41.365Z,1.55
2022-12-31T08:34:17.742Z,1.60
2022-12-31T08:37:06.629Z,1.67
2022-12-31T08:40:00.632Z,1.77
2022-12-31T08:42:33.632Z,1.83
2022-12-31T08:45:26.781Z,1.20
2022-12-31T08:48:11.249Z,1.35
2022-12-31T08:50:38.458Z,1.13
2022-12-31T08:53:05.922Z,1.00
2022-12-31T08:55:33.179Z,0.95
2022-12-31T08:58:18.232Z,0.75
2022-12-31T09:00:48.958Z,0.70
2022-12-31T09:03:27.239Z,0.60
2022-12-31T09:06:09.930Z,0.40
2022-12-31T09:09:13.981Z,0.60
2022-12-31T09:12:13.131Z,0.90
2022-12-31T09:14:53.581Z,1.10
2022-12-31T09:17:38.790Z,1.10
2022-12-31T09:20:06.733Z,1.02
2022-12-31T09:22:33.807Z,1.30
2022-12-31T09:25:00.851Z,1.70
2022-12-31T09:27:42.659Z,1.80
2022-12-31T09:30:15.740Z,1.52
2022-12-31T09:32:51.908Z,1.42
2022-12-31T09:35:36.997Z,1.20
2022-12-31T09:38:47.108Z,1.48
2022-12-31T09:41:20.062Z,4.30
2022-12-31T09:44:04.948Z,1.17
2022-12-31T09:47:06.112Z,1.10
2022-12-31T09:50:03.508Z,1.30
2022-12-31T09:52:42.135Z,1.30
2022-12-31T09:55:36.626Z,1.25
2022-12-31T09:58:39.023Z,1.70
2022-12-31T10:01:20.063Z,0.88
2022-12-31T10:04:05.927Z,1.88
2022-12-31T10:07:11.126Z,1.50
2022-12-31T10:09:46.171Z,4.40
2022-12-31T10:12:46.173Z,6.68
2022-12-31T10:15:34.954Z,9.68
2022-12-31T10:18:26.101Z,5.40
2022-12-31T10:21:28.457Z,3.13
2022-12-31T10:24:27.245Z,2.58
2022-12-31T10:27:28.531Z,2.55
2022-12-31T10:30:05.658Z,1.17
2022-12-31T10:32:54.465Z,2.03
2022-12-31T10:36:06.737Z,3.25
2022-12-31T10:38:53.330Z,2.60
2022-12-31T10:41:26.123Z,2.35
2022-12-31T10:44:17.167Z,1.80
2022-12-31T10:47:25.439Z,1.13
2022-12-31T10:50:27.528Z,1.80
2022-12-31T10:52:57.285Z,1.10
2022-12-31T10:55:45.169Z,0.98
2022-12-31T10:58:27.073Z,1.30
2022-12-31T11:01:11.638Z,1.40
2022-12-31T11:04:12.464Z,1.27
2022-12-31T11:07:24.656Z,1.20
2022-12-31T11:10:17.808Z,1.08
2022-12-31T11:12:50.638Z,1.35
2022-12-31T11:15:20.735Z,1.60
2022-12-31T11:18:08.660Z,1.55
2022-12-31T11:21:00.759Z,2.88
2022-12-31T11:23:30.660Z,2.17
2022-12-31T11:26:18.902Z,2.30
2022-12-31T11:29:28.808Z,1.50
2022-12-31T11:32:07.684Z,2.13
2022-12-31T11:34:37.736Z,2.65
2022-12-31T11:37:35.637Z,2.60
2022-12-31T11:40:02.529Z,1.70
2022-12-31T11:42:41.437Z,1.80
2022-12-31T11:45:11.285Z,3.17
2022-12-31T11:48:32.886Z,11.90
2022-12-31T11:51:27.951Z,4.07
2022-12-31T11:54:36.983Z,2.20
2022-12-31T11:57:26.484Z,1.50
2022-12-31T11:59:59.380Z,1.52
2022-12-31T12:02:52.004Z,1.30
2022-12-31T12:05:21.650Z,2.15
2022-12-31T12:07:49.960Z,1.77
2022-12-31T12:10:28.016Z,8.98
2022-12-31T12:13:00.554Z,5.35
2022-12-31T12:15:31.882Z,3.72
2022-12-31T12:18:04.651Z,7.40
2022-12-31T12:20:34.801Z,3.42
2022-12-31T12:23:12.330Z,4.53
2022-12-31T12:25:41.518Z,2.40
2022-12-31T12:28:29.600Z,2.10
2022-12-31T12:31:05.048Z,2.20
2022-12-31T12:33:44.128Z,1.40
2022-12-31T12:36:14.524Z,2.05
2022-12-31T12:38:42.640Z,1.80
2022-12-31T12:41:28.101Z,3.22
2022-12-31T12:44:14.206Z,2.10
2022-12-31T12:46:49.213Z,2.40
2022-12-31T12:49:25.187Z,2.15
2022-12-31T12:52:23.041Z,2.08
2022-12-31T12:54:58.811Z,1.40
2022-12-31T12:57:41.075Z,2.08
2022-12-31T13:02:58.427Z,1.90
2022-12-31T13:05:53.408Z,1.70
2022-12-31T13:08:35.431Z,1.67
2022-12-31T13:11:28.250Z,2.28
2022-12-31T13:14:01.189Z,1.85
2022-12-31T13:16:45.651Z,2.17
2022-12-31T13:19:27.447Z,2.08
2022-12-31T13:21:57.462Z,2.30
2022-12-31T13:24:43.190Z,2.33
2022-12-31T13:27:25.155Z,2.35
2022-12-31T13:29:55.464Z,1.80
2022-12-31T13:32:29.288Z,2.38
2022-12-31T13:35:16.930Z,2.33
2022-12-31T13:37:46.736Z,3.47
2022-12-31T13:40:23.922Z,2.42
2022-12-31T13:43:00.551Z,3.08
2022-12-31T13:45:33.865Z,2.58
2022-12-31T13:48:07.151Z,2.80
2022-12-31T13:50:51.357Z,2.58
2022-12-31T13:53:36.657Z,2.70
2022-12-31T13:56:11.507Z,2.28
2022-12-31T13:58:54.544Z,2.60
2022-12-31T14:01:34.155Z,2.92
2022-12-31T14:04:21.406Z,2.35
2022-12-31T14:07:07.017Z,2.70
2022-12-31T14:09:35.000Z,2.28
2022-12-31T14:12:32.065Z,1.90
2022-12-31T14:15:07.881Z,2.22
2022-12-31T14:17:43.773Z,1.73
2022-12-31T14:20:28.878Z,2.35
2022-12-31T14:23:10.888Z,1.95
2022-12-31T14:25:49.305Z,2.10
2022-12-31T14:28:25.810Z,1.98
2022-12-31T14:31:10.960Z,1.73
2022-12-31T14:34:18.682Z,1.80
2022-12-31T14:37:10.592Z,1.80
2022-12-31T14:40:02.323Z,1.60
2022-12-31T14:42:29.238Z,2.53
2022-12-31T14:45:03.602Z,1.65
2022-12-31T14:47:54.522Z,1.60
2022-12-31T14:50:26.301Z,1.80
2022-12-31T14:52:54.795Z,1.90
2022-12-31T14:55:34.049Z,2.30
2022-12-31T15:00:53.854Z,2.08
2022-12-31T15:03:33.630Z,2.58
2022-12-31T15:06:28.314Z,2.90
2022-12-31T15:09:34.552Z,2.15
2022-12-31T15:12:22.639Z,2.53
2022-12-31T15:14:56.251Z,2.60
2022-12-31T15:17:28.993Z,2.58
2022-12-31T15:20:17.606Z,3.42
2022-12-31T15:22:52.428Z,3.08
2022-12-31T15:25:28.303Z,2.72
2022-12-31T15:27:58.465Z,2.70
2022-12-31T15:30:37.489Z,4.22
2022-12-31T15:33:19.028Z,2.90
2022-12-31T15:35:53.003Z,4.83
2022-12-31T15:38:35.357Z,2.97
2022-12-31T15:43:56.149Z,2.97
2022-12-31T15:49:04.916Z,3.50
2022-12-31T15:51:54.639Z,2.57
2022-12-31T15:54:46.283Z,2.72
2022-12-31T15:57:32.027Z,2.60
2022-12-31T16:00:04.818Z,3.33
2022-12-31T16:02:32.113Z,3.05
2022-12-31T16:04:59.395Z,3.17
2022-12-31T16:07:28.730Z,3.33
2022-12-31T16:09:59.274Z,4.78
2022-12-31T16:12:34.271Z,3.67
2022-12-31T16:15:03.306Z,3.28
2022-12-31T16:17:35.922Z,2.95
2022-12-31T16:20:25.435Z,2.58
2022-12-31T16:22:56.198Z,3.17
2022-12-31T16:25:33.177Z,3.00
2022-12-31T16:28:02.720Z,3.03
2022-12-31T16:30:35.914Z,2.53
2022-12-31T16:33:05.502Z,3.30
2022-12-31T16:35:34.827Z,2.80
2022-12-31T16:38:07.866Z,3.78
2022-12-31T16:40:35.361Z,3.30
2022-12-31T16:43:02.294Z,4.38
2022-12-31T16:45:36.583Z,4.53
2022-12-31T16:48:14.716Z,3.90
2022-12-31T16:50:49.607Z,3.63
2022-12-31T16:53:19.666Z,4.15
2022-12-31T16:56:30.130Z,4.95
2022-12-31T16:59:03.688Z,3.80
2022-12-31T17:01:33.872Z,4.20
2022-12-31T17:04:09.313Z,3.60
2022-12-31T17:06:36.278Z,3.00
2022-12-31T17:09:14.428Z,3.33
2022-12-31T17:11:54.345Z,3.40
2022-12-31T17:14:24.402Z,3.17
2022-12-31T17:17:08.795Z,3.35
2022-12-31T17:19:45.957Z,3.63
2022-12-31T17:22:36.473Z,3.70
2022-12-31T17:25:15.553Z,3.60
2022-12-31T17:27:56.795Z,4.07
2022-12-31T17:30:32.835Z,4.20
2022-12-31T17:33:03.813Z,3.13
2022-12-31T17:35:36.715Z,3.45
2022-12-31T17:38:22.011Z,3.65
2022-12-31T17:40:54.259Z,5.43
2022-12-31T17:43:23.602Z,3.03
2022-12-31T17:45:52.087Z,3.80
2022-12-31T17:48:20.548Z,3.40
2022-12-31T17:50:52.324Z,3.63
2022-12-31T17:53:19.844Z,4.05
2022-12-31T17:55:54.717Z,2.92
2022-12-31T17:58:59.465Z,3.20
2022-12-31T18:01:26.716Z,3.53
2022-12-31T18:03:53.749Z,2.55
2022-12-31T18:06:20.617Z,2.92
2022-12-31T18:08:47.644Z,3.13
2022-12-31T18:11:23.322Z,2.92
2022-12-31T18:13:50.275Z,3.05
2022-12-31T18:16:17.213Z,3.53
2022-12-31T18:18:45.484Z,4.43
2022-12-31T18:21:38.828Z,3.40
2022-12-31T18:24:06.227Z,3.67
2022-12-31T18:26:34.443Z,4.32
2022-12-31T18:29:19.511Z,3.53
2022-12-31T18:31:48.337Z,3.03
2022-12-31T18:34:16.609Z,3.78
2022-12-31T18:36:44.153Z,4.05
2022-12-31T18:39:11.263Z,3.97
2022-12-31T18:41:49.401Z,3.90
2022-12-31T18:44:17.371Z,3.58
2022-12-31T18:46:44.388Z,3.25
2022-12-31T18:49:11.297Z,3.40
2022-12-31T18:51:38.266Z,3.42
2022-12-31T18:54:06.217Z,3.30
2022-12-31T18:56:33.256Z,3.95
2022-12-31T18:59:00.216Z,3.30
2022-12-31T19:01:36.806Z,2.95
2022-12-31T19:04:13.364Z,2.85
2022-12-31T19:06:40.491Z,3.05
2022-12-31T19:09:23.911Z,3.22
2022-12-31T19:11:54.171Z,3.25
2022-12-31T19:14:24.794Z,2.92
2022-12-31T19:16:53.520Z,2.88
2022-12-31T19:19:21.428Z,2.63
2022-12-31T19:21:48.564Z,3.97
2022-12-31T19:24:21.141Z,2.60
2022-12-31T19:26:48.712Z,3.20
2022-12-31T19:29:28.470Z,2.70
2022-12-31T19:31:55.475Z,2.95
2022-12-31T19:34:22.401Z,3.58
2022-12-31T19:36:49.313Z,2.22
2022-12-31T19:39:19.602Z,3.13
2022-12-31T19:41:52.981Z,2.88
2022-12-31T19:44:25.771Z,2.47
2022-12-31T19:46:52.727Z,3.25
2022-12-31T19:49:19.638Z,3.58
2022-12-31T19:51:46.745Z,3.58
2022-12-31T19:54:13.934Z,3.85
2022-12-31T19:56:40.910Z,3.45
2022-12-31T19:59:10.487Z,3.42
2022-12-31T20:01:37.962Z,2.95
2022-12-31T20:04:05.069Z,3.15
2022-12-31T20:06:32.067Z,3.55
2022-12-31T20:08:58.932Z,3.40
2022-12-31T20:11:25.948Z,2.97
2022-12-31T20:13:54.036Z,3.75
2022-12-31T20:16:23.235Z,3.30
2022-12-31T20:18:50.812Z,3.95
2022-12-31T20:21:23.487Z,3.65
2022-12-31T20:23:51.549Z,3.63
2022-12-31T20:26:19.182Z,3.35
2022-12-31T20:28:46.191Z,4.32
2022-12-31T20:31:19.685Z,4.10
2022-12-31T20:33:46.762Z,4.20
2022-12-31T20:36:15.523Z,4.50
2022-12-31T20:38:42.548Z,4.10
2022-12-31T20:41:11.766Z,3.85
2022-12-31T20:43:39.137Z,4.90
2022-12-31T20:46:16.297Z,3.47
2022-12-31T20:48:44.654Z,4.28
2022-12-31T20:51:13.006Z,4.07
2022-12-31T20:53:40.143Z,4.35
2022-12-31T20:56:08.566Z,4.00
2022-12-31T20:58:36.210Z,3.85
2022-12-31T21:01:06.691Z,4.20
2022-12-31T21:06:27.041Z,3.50
2022-12-31T21:08:55.682Z,3.85
2022-12-31T21:11:41.652Z,3.78
2022-12-31T21:14:08.498Z,3.90
2022-12-31T21:16:35.474Z,3.47
2022-12-31T21:19:02.629Z,4.20
2022-12-31T21:21:29.494Z,3.97
2022-12-31T21:23:56.335Z,3.70
2022-12-31T21:26:23.196Z,3.42
2022-12-31T21:28:50.101Z,3.75
2022-12-31T21:31:17.071Z,3.67
2022-12-31T21:33:45.675Z,4.43
2022-12-31T21:36:12.753Z,3.25
2022-12-31T21:38:40.071Z,2.97
2022-12-31T21:41:08.533Z,4.20
2022-12-31T21:43:35.425Z,3.58
2022-12-31T21:46:04.659Z,3.50
2022-12-31T21:48:32.319Z,3.58
2022-12-31T21:51:08.873Z,3.78
2022-12-31T21:53:37.409Z,3.67
2022-12-31T21:56:08.246Z,3.22
2022-12-31T21:58:47.310Z,3.40
2022-12-31T22:01:38.478Z,4.47
2022-12-31T22:04:07.908Z,10.07
2022-12-31T22:06:39.913Z,6.43
2022-12-31T22:09:06.797Z,4.20
2022-12-31T22:11:33.672Z,3.53
2022-12-31T22:14:00.558Z,3.72
2022-12-31T22:16:28.592Z,4.65
2022-12-31T22:18:56.320Z,4.28
2022-12-31T22:21:25.418Z,4.15
2022-12-31T22:23:56.522Z,3.50
2022-12-31T22:26:26.271Z,4.10
2022-12-31T22:28:54.599Z,4.28
2022-12-31T22:31:24.884Z,3.38
2022-12-31T22:33:52.258Z,4.10
2022-12-31T22:36:21.385Z,3.70
2022-12-31T22:38:49.523Z,3.47
2022-12-31T22:41:21.581Z,4.10
2022-12-31T22:43:50.467Z,3.55
2022-12-31T22:46:28.186Z,3.75
2022-12-31T22:48:58.724Z,3.13
2022-12-31T22:51:29.233Z,3.35
2022-12-31T22:54:12.993Z,3.65
2022-12-31T22:56:40.039Z,4.43
2022-12-31T22:59:06.946Z,4.50
2022-12-31T23:01:34.506Z,4.07
2022-12-31T23:04:01.586Z,3.72
2022-12-31T23:06:29.115Z,3.10
2022-12-31T23:09:15.037Z,3.78
2022-12-31T23:11:43.210Z,5.90
2022-12-31T23:14:35.273Z,5.53
2022-12-31T23:17:29.944Z,4.45
2022-12-31T23:20:18.042Z,4.63
2022-12-31T23:23:04.400Z,5.32
2022-12-31T23:25:48.744Z,5.03
2022-12-31T23:28:21.395Z,6.47
2022-12-31T23:30:49.030Z,6.57
2022-12-31T23:33:21.393Z,9.63
2022-12-31T23:35:48.796Z,9.43
2022-12-31T23:38:17.744Z,11.60
2022-12-31T23:40:45.213Z,12.70
2022-12-31T23:43:20.331Z,10.43
2022-12-31T23:45:49.279Z,10.18
2022-12-31T23:48:16.175Z,9.10
2022-12-31T23:50:47.696Z,9.40
2022-12-31T23:53:17.778Z,8.07
2022-12-31T23:55:44.656Z,8.15
2022-12-31T23:58:11.499Z,8.05
